createdAt,value
2019-05-07T00:00:03.321Z,0
2019-05-07T00:01:06.166Z,0
2019-05-07T00:02:08.353Z,0
2019-05-07T00:03:12.328Z,0
2019-05-07T00:04:14.891Z,0
2019-05-07T00:05:18.017Z,0
2019-05-07T00:06:23.043Z,0
2019-05-07T00:07:33.775Z,0
2019-05-07T00:08:44.445Z,0
2019-05-07T00:09:47.890Z,0
2019-05-07T00:10:50.087Z,0
2019-05-07T00:11:54.900Z,0
2019-05-07T00:12:57.013Z,0
2019-05-07T00:13:59.350Z,0
2019-05-07T00:15:04.419Z,0
2019-05-07T00:16:07.026Z,0
2019-05-07T00:17:09.290Z,0
2019-05-07T00:18:12.682Z,0
2019-05-07T00:19:14.938Z,0
2019-05-07T00:20:17.100Z,0
2019-05-07T00:21:19.240Z,0
2019-05-07T00:22:22.673Z,0
2019-05-07T00:23:24.930Z,0
2019-05-07T00:24:27.043Z,0
2019-05-07T00:25:29.117Z,0
2019-05-07T00:26:33.812Z,0
2019-05-07T00:27:35.936Z,0
2019-05-07T00:28:38.301Z,0
2019-05-07T00:29:42.606Z,0
2019-05-07T00:30:45.365Z,0
2019-05-07T00:31:47.491Z,0
2019-05-07T00:32:49.574Z,0
2019-05-07T00:33:54.131Z,0
2019-05-07T00:34:56.203Z,0
2019-05-07T00:35:58.276Z,0
2019-05-07T00:37:02.142Z,0
2019-05-07T00:38:08.580Z,0
2019-05-07T00:39:12.242Z,0
2019-05-07T00:40:14.460Z,0
2019-05-07T00:41:16.516Z,0
2019-05-07T00:42:18.919Z,0
2019-05-07T00:43:23.469Z,0
2019-05-07T00:44:25.534Z,0
2019-05-07T00:45:27.601Z,0
2019-05-07T00:46:31.922Z,0
2019-05-07T00:47:34.279Z,0
2019-05-07T00:48:36.654Z,0
2019-05-07T00:49:38.764Z,0
2019-05-07T00:50:42.021Z,0
2019-05-07T00:51:44.183Z,0
2019-05-07T00:52:46.313Z,0
2019-05-07T00:53:48.392Z,0
2019-05-07T00:54:50.492Z,0
2019-05-07T00:55:54.998Z,0
2019-05-07T00:56:57.464Z,0
2019-05-07T00:58:02.125Z,0
2019-05-07T00:59:05.096Z,0
2019-05-07T01:00:07.216Z,0
2019-05-07T01:01:09.290Z,0
2019-05-07T01:02:12.780Z,0
2019-05-07T01:03:14.923Z,0
2019-05-07T01:04:16.976Z,0
2019-05-07T01:05:19.098Z,0
2019-05-07T01:06:22.419Z,0
2019-05-07T01:07:28.590Z,0
2019-05-07T01:08:33.559Z,0
2019-05-07T01:09:35.636Z,0
2019-05-07T01:10:37.973Z,0
2019-05-07T01:11:40.069Z,0
2019-05-07T01:12:45.211Z,0
2019-05-07T01:13:47.276Z,0
2019-05-07T01:14:49.385Z,0
2019-05-07T01:15:54.161Z,0
2019-05-07T01:16:56.228Z,0
2019-05-07T01:17:58.296Z,0
2019-05-07T01:19:01.869Z,0
2019-05-07T01:20:04.531Z,0
2019-05-07T01:21:06.590Z,0
2019-05-07T01:22:08.711Z,0
2019-05-07T01:23:13.094Z,0
2019-05-07T01:24:15.466Z,0
2019-05-07T01:25:17.584Z,0
2019-05-07T01:26:21.518Z,0
2019-05-07T01:27:24.198Z,0
2019-05-07T01:28:26.249Z,0
2019-05-07T01:29:28.392Z,0
2019-05-07T01:30:32.399Z,0
2019-05-07T01:31:34.631Z,0
2019-05-07T01:32:36.766Z,0
2019-05-07T01:33:39.113Z,0
2019-05-07T01:34:43.946Z,0
2019-05-07T01:35:46.036Z,0
2019-05-07T01:36:48.116Z,0
2019-05-07T01:37:52.225Z,0
2019-05-07T01:38:54.513Z,0
2019-05-07T01:39:56.652Z,0
2019-05-07T01:40:58.712Z,0
2019-05-07T01:42:02.091Z,0
2019-05-07T01:43:04.639Z,0
2019-05-07T01:44:06.698Z,0
2019-05-07T01:45:08.871Z,0
2019-05-07T01:46:12.234Z,0
2019-05-07T01:47:14.535Z,0
2019-05-07T01:48:16.592Z,0
2019-05-07T01:49:18.714Z,0
2019-05-07T01:50:22.672Z,0
2019-05-07T01:51:25.237Z,0
2019-05-07T01:52:27.381Z,0
2019-05-07T01:53:29.432Z,0
2019-05-07T01:54:34.076Z,0
2019-05-07T01:55:36.143Z,0
2019-05-07T01:56:38.225Z,0
2019-05-07T01:57:42.091Z,0
2019-05-07T01:58:44.290Z,0
2019-05-07T01:59:46.413Z,0
2019-05-07T02:00:48.478Z,0
2019-05-07T02:01:52.242Z,0
2019-05-07T02:02:54.448Z,0
2019-05-07T02:03:56.521Z,0
2019-05-07T02:04:59.051Z,0
2019-05-07T02:06:02.162Z,0
2019-05-07T02:07:04.335Z,0
2019-05-07T02:08:06.422Z,0
2019-05-07T02:09:10.286Z,0
2019-05-07T02:10:14.989Z,0
2019-05-07T02:11:17.065Z,0
2019-05-07T02:12:19.132Z,0
2019-05-07T02:13:23.525Z,0
2019-05-07T02:14:25.611Z,0
2019-05-07T02:15:27.725Z,0
2019-05-07T02:16:29.805Z,0
2019-05-07T02:17:34.593Z,0
2019-05-07T02:18:36.655Z,0
2019-05-07T02:19:38.748Z,0
2019-05-07T02:20:43.707Z,0
2019-05-07T02:21:46.163Z,0
2019-05-07T02:22:48.276Z,0
2019-05-07T02:23:52.290Z,0
2019-05-07T02:24:54.776Z,0
2019-05-07T02:25:56.838Z,0
2019-05-07T02:26:58.930Z,0
2019-05-07T02:28:02.138Z,0
2019-05-07T02:29:05.030Z,0
2019-05-07T02:30:07.142Z,0
2019-05-07T02:31:09.768Z,0
2019-05-07T02:32:16.461Z,0
2019-05-07T02:33:19.236Z,0
2019-05-07T02:34:25.072Z,0
2019-05-07T02:35:27.152Z,0
2019-05-07T02:36:29.536Z,0
2019-05-07T02:37:46.814Z,0
2019-05-07T02:38:59.554Z,0
2019-05-07T02:40:04.719Z,0
2019-05-07T02:41:08.373Z,0
2019-05-07T02:42:13.035Z,0
2019-05-07T02:43:15.598Z,0
2019-05-07T02:44:18.048Z,0
2019-05-07T02:45:21.045Z,0
2019-05-07T02:46:31.451Z,0
2019-05-07T02:47:38.720Z,0
2019-05-07T02:48:42.802Z,0
2019-05-07T02:49:45.322Z,4
2019-05-07T02:50:47.839Z,4
2019-05-07T02:51:52.947Z,4
2019-05-07T02:52:55.496Z,0
2019-05-07T02:53:57.922Z,4
2019-05-07T02:55:03.482Z,4
2019-05-07T02:56:07.692Z,4
2019-05-07T02:57:13.232Z,4
2019-05-07T02:58:19.061Z,4
2019-05-07T02:59:25.627Z,8
2019-05-07T03:00:28.403Z,8
2019-05-07T03:01:33.435Z,8
2019-05-07T03:02:36.459Z,8
2019-05-07T03:03:38.926Z,12
2019-05-07T03:04:43.497Z,12
2019-05-07T03:05:45.815Z,16
2019-05-07T03:06:48.368Z,16
2019-05-07T03:07:53.438Z,24
2019-05-07T03:08:55.823Z,24
2019-05-07T03:09:57.891Z,28
2019-05-07T03:11:03.188Z,32
2019-05-07T03:12:06.370Z,40
2019-05-07T03:13:09.027Z,44
2019-05-07T03:14:13.784Z,48
2019-05-07T03:15:16.291Z,56
2019-05-07T03:16:35.111Z,60
2019-05-07T03:17:55.300Z,76
2019-05-07T03:18:57.658Z,84
2019-05-07T03:20:02.922Z,96
2019-05-07T03:21:05.907Z,108
2019-05-07T03:22:07.925Z,116
2019-05-07T03:23:10.021Z,128
2019-05-07T03:24:15.307Z,148
2019-05-07T03:25:18.448Z,160
2019-05-07T03:26:23.051Z,176
2019-05-07T03:27:25.938Z,192
2019-05-07T03:28:28.054Z,212
2019-05-07T03:29:33.219Z,232
2019-05-07T03:30:36.471Z,252
2019-05-07T03:31:38.771Z,272
2019-05-07T03:32:46.695Z,296
2019-05-07T03:33:55.188Z,324
2019-05-07T03:34:59.106Z,352
2019-05-07T03:36:15.844Z,380
2019-05-07T03:37:19.871Z,408
2019-05-07T03:38:25.137Z,440
2019-05-07T03:39:27.254Z,468
2019-05-07T03:40:32.652Z,500
2019-05-07T03:41:35.027Z,528
2019-05-07T03:42:37.390Z,564
2019-05-07T03:43:39.425Z,596
2019-05-07T03:44:44.932Z,632
2019-05-07T03:45:47.616Z,668
2019-05-07T03:46:57.489Z,704
2019-05-07T03:48:08.476Z,744
2019-05-07T03:49:13.555Z,780
2019-05-07T03:50:16.038Z,820
2019-05-07T03:51:18.694Z,860
2019-05-07T03:52:24.103Z,892
2019-05-07T03:53:26.688Z,932
2019-05-07T03:54:28.830Z,968
2019-05-07T03:55:35.515Z,1012
2019-05-07T03:56:38.205Z,1048
2019-05-07T03:57:43.546Z,1088
2019-05-07T03:58:47.183Z,1128
2019-05-07T03:59:53.234Z,1164
2019-05-07T04:00:55.888Z,1208
2019-05-07T04:01:58.672Z,1248
2019-05-07T04:03:04.383Z,1292
2019-05-07T04:04:06.774Z,1328
2019-05-07T04:05:09.441Z,1372
2019-05-07T04:06:15.886Z,1412
2019-05-07T04:07:18.981Z,1452
2019-05-07T04:08:25.266Z,1492
2019-05-07T04:09:27.369Z,1528
2019-05-07T04:10:29.483Z,1564
2019-05-07T04:11:35.469Z,1604
2019-05-07T04:12:37.549Z,1644
2019-05-07T04:13:39.582Z,1680
2019-05-07T04:14:46.132Z,1720
2019-05-07T04:15:48.981Z,1756
2019-05-07T04:17:04.693Z,1796
2019-05-07T04:18:28.849Z,1852
2019-05-07T04:19:34.922Z,1892
2019-05-07T04:20:37.406Z,1924
2019-05-07T04:21:39.547Z,1956
2019-05-07T04:22:45.235Z,1992
2019-05-07T04:23:47.652Z,2028
2019-05-07T04:24:53.030Z,2060
2019-05-07T04:25:55.521Z,2092
2019-05-07T04:26:57.883Z,2128
2019-05-07T04:28:03.449Z,2164
2019-05-07T04:29:06.606Z,2204
2019-05-07T04:30:09.058Z,2236
2019-05-07T04:31:14.722Z,2260
2019-05-07T04:32:17.525Z,2300
2019-05-07T04:33:20.281Z,2332
2019-05-07T04:34:26.678Z,2368
2019-05-07T04:35:28.742Z,2392
2019-05-07T04:36:33.740Z,2428
2019-05-07T04:37:36.833Z,2464
2019-05-07T04:38:39.321Z,2484
2019-05-07T04:39:42.842Z,2512
2019-05-07T04:40:45.166Z,2544
2019-05-07T04:41:47.540Z,2568
2019-05-07T04:42:49.949Z,2592
2019-05-07T04:43:56.403Z,2624
2019-05-07T04:44:58.518Z,2652
2019-05-07T04:46:03.091Z,2676
2019-05-07T04:47:06.161Z,2704
2019-05-07T04:48:08.595Z,2728
2019-05-07T04:49:12.987Z,2760
2019-05-07T04:50:32.800Z,2788
2019-05-07T04:51:52.669Z,2836
2019-05-07T04:52:55.527Z,2868
2019-05-07T04:53:57.960Z,2892
2019-05-07T04:55:00.067Z,2924
2019-05-07T04:56:06.654Z,2952
2019-05-07T04:57:08.744Z,2976
2019-05-07T04:58:14.580Z,3012
2019-05-07T04:59:17.226Z,3032
2019-05-07T05:00:22.685Z,3056
2019-05-07T05:01:25.662Z,3084
2019-05-07T05:02:28.118Z,3108
2019-05-07T05:03:34.757Z,3136
2019-05-07T05:04:43.651Z,3164
2019-05-07T05:05:47.338Z,3196
2019-05-07T05:06:49.458Z,3224
2019-05-07T05:07:54.325Z,3248
2019-05-07T05:08:56.556Z,3272
2019-05-07T05:09:59.534Z,3300
2019-05-07T05:11:05.451Z,3324
2019-05-07T05:12:07.580Z,3356
2019-05-07T05:13:12.532Z,3368
2019-05-07T05:14:15.454Z,3384
2019-05-07T05:15:17.978Z,3408
2019-05-07T05:16:22.234Z,3420
2019-05-07T05:17:24.907Z,3448
2019-05-07T05:18:26.995Z,3468
2019-05-07T05:19:29.604Z,3492
2019-05-07T05:20:34.436Z,3516
2019-05-07T05:21:36.516Z,3532
2019-05-07T05:22:38.598Z,3556
2019-05-07T05:23:41.874Z,3576
2019-05-07T05:24:44.054Z,3592
2019-05-07T05:25:46.558Z,3612
2019-05-07T05:26:48.621Z,3636
2019-05-07T05:27:52.381Z,3656
2019-05-07T05:28:54.523Z,3684
2019-05-07T05:29:56.596Z,3720
2019-05-07T05:30:58.734Z,3748
2019-05-07T05:32:02.310Z,3772
2019-05-07T05:33:04.528Z,3800
2019-05-07T05:34:06.979Z,3836
2019-05-07T05:35:08.999Z,3864
2019-05-07T05:36:12.598Z,3900
2019-05-07T05:37:15.102Z,3928
2019-05-07T05:38:17.233Z,3964
2019-05-07T05:39:19.289Z,3996
2019-05-07T05:40:23.971Z,4032
2019-05-07T05:41:26.037Z,4048
2019-05-07T05:42:28.114Z,4068
2019-05-07T05:43:31.907Z,4092
2019-05-07T05:44:34.356Z,4112
2019-05-07T05:45:36.875Z,4124
2019-05-07T05:46:39.623Z,4144
2019-05-07T05:47:44.948Z,4172
2019-05-07T05:48:47.499Z,4200
2019-05-07T05:49:49.968Z,4244
2019-05-07T05:50:53.563Z,4276
2019-05-07T05:51:56.107Z,4296
2019-05-07T05:52:58.241Z,4336
2019-05-07T05:54:02.000Z,4360
2019-05-07T05:55:04.182Z,4380
2019-05-07T05:56:06.327Z,4404
2019-05-07T05:57:08.382Z,4432
2019-05-07T05:58:12.201Z,4452
2019-05-07T05:59:23.986Z,4488
2019-05-07T06:00:57.008Z,4532
2019-05-07T06:01:59.051Z,4544
2019-05-07T06:03:07.883Z,4572
2019-05-07T06:04:12.260Z,4604
2019-05-07T06:05:14.563Z,4620
2019-05-07T06:06:16.634Z,4648
2019-05-07T06:07:18.758Z,4676
2019-05-07T06:08:20.780Z,4692
2019-05-07T06:09:25.716Z,4724
2019-05-07T06:10:28.173Z,4748
2019-05-07T06:11:32.165Z,4772
2019-05-07T06:12:34.783Z,4824
2019-05-07T06:13:36.842Z,4864
2019-05-07T06:14:38.876Z,4888
2019-05-07T06:15:41.979Z,4916
2019-05-07T06:16:44.118Z,4952
2019-05-07T06:17:46.198Z,4964
2019-05-07T06:18:48.270Z,4984
2019-05-07T06:19:51.842Z,4992
2019-05-07T06:20:54.054Z,5012
2019-05-07T06:21:56.147Z,5040
2019-05-07T06:22:58.207Z,5068
2019-05-07T06:24:02.193Z,5092
2019-05-07T06:25:04.400Z,5128
2019-05-07T06:26:07.152Z,5160
2019-05-07T06:27:09.655Z,5192
2019-05-07T06:28:14.416Z,5248
2019-05-07T06:29:16.485Z,5272
2019-05-07T06:30:24.725Z,5312
2019-05-07T06:31:26.860Z,5344
2019-05-07T06:32:28.921Z,5368
2019-05-07T06:33:33.319Z,5396
2019-05-07T06:34:35.765Z,5440
2019-05-07T06:35:37.921Z,5472
2019-05-07T06:36:42.173Z,5492
2019-05-07T06:37:44.500Z,5536
2019-05-07T06:38:46.651Z,5572
2019-05-07T06:39:48.676Z,5616
2019-05-07T06:40:51.894Z,5656
2019-05-07T06:41:54.377Z,5672
2019-05-07T06:42:56.402Z,5700
2019-05-07T06:43:58.818Z,5724
2019-05-07T06:45:03.332Z,5752
2019-05-07T06:46:05.461Z,5836
2019-05-07T06:47:07.481Z,5880
2019-05-07T06:48:09.884Z,5932
2019-05-07T06:49:14.844Z,5936
2019-05-07T06:50:16.931Z,5964
2019-05-07T06:51:19.076Z,6000
2019-05-07T06:52:23.484Z,6060
2019-05-07T06:53:25.569Z,6116
2019-05-07T06:54:27.644Z,6144
2019-05-07T06:55:32.121Z,6140
2019-05-07T06:56:34.548Z,6212
2019-05-07T06:57:36.624Z,6264
2019-05-07T06:58:38.754Z,6328
2019-05-07T06:59:43.261Z,6360
2019-05-07T07:00:45.371Z,6360
2019-05-07T07:01:47.487Z,6372
2019-05-07T07:02:49.893Z,6384
2019-05-07T07:03:54.341Z,6440
2019-05-07T07:04:56.479Z,6692
2019-05-07T07:05:58.837Z,7128
2019-05-07T07:07:01.907Z,7576
2019-05-07T07:08:04.483Z,7884
2019-05-07T07:09:06.821Z,8520
2019-05-07T07:10:08.975Z,9316
2019-05-07T07:11:13.399Z,8660
2019-05-07T07:12:15.507Z,7352
2019-05-07T07:13:17.864Z,7136
2019-05-07T07:14:22.495Z,8972
2019-05-07T07:15:24.823Z,8324
2019-05-07T07:16:26.909Z,7788
2019-05-07T07:17:29.041Z,6752
2019-05-07T07:18:47.516Z,7196
2019-05-07T07:19:57.865Z,7588
2019-05-07T07:21:02.116Z,7940
2019-05-07T07:22:04.689Z,8164
2019-05-07T07:23:07.062Z,8480
2019-05-07T07:24:09.136Z,8916
2019-05-07T07:25:11.864Z,9676
2019-05-07T07:26:14.467Z,8988
2019-05-07T07:27:16.589Z,8300
2019-05-07T07:28:18.951Z,8460
2019-05-07T07:29:23.685Z,9092
2019-05-07T07:30:26.109Z,9888
2019-05-07T07:31:28.474Z,9464
2019-05-07T07:32:32.916Z,8800
2019-05-07T07:33:35.005Z,7916
2019-05-07T07:34:37.455Z,8632
2019-05-07T07:35:39.608Z,8724
2019-05-07T07:36:44.138Z,8884
2019-05-07T07:37:46.228Z,8892
2019-05-07T07:38:48.294Z,8928
2019-05-07T07:39:52.266Z,9104
2019-05-07T07:40:54.508Z,8912
2019-05-07T07:41:56.615Z,8840
2019-05-07T07:42:59.059Z,8960
2019-05-07T07:44:02.046Z,9024
2019-05-07T07:45:04.336Z,9620
2019-05-07T07:46:06.727Z,10176
2019-05-07T07:47:08.805Z,10756
2019-05-07T07:48:12.882Z,11604
2019-05-07T07:49:15.454Z,11828
2019-05-07T07:50:17.654Z,11836
2019-05-07T07:51:34.158Z,12812
2019-05-07T07:52:47.459Z,11884
2019-05-07T07:53:51.814Z,11364
2019-05-07T07:54:54.114Z,11712
2019-05-07T07:55:56.578Z,11720
2019-05-07T07:56:58.663Z,11776
2019-05-07T07:58:03.661Z,13688
2019-05-07T07:59:06.302Z,15704
2019-05-07T08:00:08.464Z,16724
2019-05-07T08:01:12.931Z,15948
2019-05-07T08:02:15.018Z,14512
2019-05-07T08:03:17.138Z,13628
2019-05-07T08:04:19.229Z,16388
2019-05-07T08:05:21.967Z,19200
2019-05-07T08:06:24.106Z,20544
2019-05-07T08:07:26.240Z,21856
2019-05-07T08:08:28.512Z,18816
2019-05-07T08:09:33.089Z,20448
2019-05-07T08:10:35.473Z,21856
2019-05-07T08:11:37.558Z,21088
2019-05-07T08:12:41.978Z,20000
2019-05-07T08:13:44.232Z,17232
2019-05-07T08:14:46.302Z,18368
2019-05-07T08:15:48.442Z,23552
2019-05-07T08:16:52.685Z,22752
2019-05-07T08:17:55.009Z,24032
2019-05-07T08:18:57.079Z,27776
2019-05-07T08:19:59.161Z,32864
2019-05-07T08:21:03.810Z,33312
2019-05-07T08:22:09.282Z,33568
2019-05-07T08:23:14.001Z,14688
2019-05-07T08:24:16.091Z,13992
2019-05-07T08:25:18.220Z,14260
2019-05-07T08:26:21.873Z,14640
2019-05-07T08:27:24.095Z,14500
2019-05-07T08:28:26.469Z,15628
2019-05-07T08:29:28.528Z,16436
2019-05-07T08:30:32.528Z,17384
2019-05-07T08:31:34.767Z,20320
2019-05-07T08:32:36.843Z,103968
2019-05-07T08:33:38.997Z,102976
2019-05-07T08:34:42.786Z,38592
2019-05-07T08:35:45.435Z,21696
2019-05-07T08:36:47.501Z,16464
2019-05-07T08:37:51.798Z,16432
2019-05-07T08:38:53.949Z,18624
2019-05-07T08:39:56.039Z,28768
2019-05-07T08:40:58.186Z,76512
2019-05-07T08:42:02.032Z,98528
2019-05-07T08:43:05.033Z,21952
2019-05-07T08:44:11.859Z,13184
2019-05-07T08:45:18.006Z,13276
2019-05-07T08:46:27.878Z,14912
2019-05-07T08:47:31.895Z,50368
2019-05-07T08:48:34.826Z,106176
2019-05-07T08:49:40.018Z,110656
2019-05-07T08:50:45.872Z,108288
2019-05-07T08:51:48.864Z,20832
2019-05-07T08:52:55.394Z,20128
2019-05-07T08:53:57.933Z,50176
2019-05-07T08:55:02.123Z,71456
2019-05-07T08:56:04.381Z,24640
2019-05-07T08:57:06.961Z,98784
2019-05-07T08:58:09.336Z,103744
2019-05-07T08:59:14.160Z,28672
2019-05-07T09:00:16.260Z,17768
2019-05-07T09:01:18.405Z,15144
2019-05-07T09:02:22.121Z,16360
2019-05-07T09:03:25.028Z,19360
2019-05-07T09:04:27.141Z,27296
2019-05-07T09:05:29.226Z,26560
2019-05-07T09:06:33.638Z,22208
2019-05-07T09:07:35.798Z,86464
2019-05-07T09:08:37.922Z,20832
2019-05-07T09:09:42.450Z,19360
2019-05-07T09:10:44.817Z,20416
2019-05-07T09:11:46.958Z,21632
2019-05-07T09:12:49.035Z,23104
2019-05-07T09:13:52.516Z,25600
2019-05-07T09:14:54.687Z,62944
2019-05-07T09:15:56.797Z,36864
2019-05-07T09:16:58.896Z,40960
2019-05-07T09:18:04.230Z,28512
2019-05-07T09:19:06.369Z,24864
2019-05-07T09:20:09.233Z,28704
2019-05-07T09:21:14.256Z,16716
2019-05-07T09:22:16.345Z,14388
2019-05-07T09:23:18.802Z,13608
2019-05-07T09:24:22.482Z,14004
2019-05-07T09:25:24.614Z,15288
2019-05-07T09:26:26.742Z,16700
2019-05-07T09:27:29.143Z,18720
2019-05-07T09:28:32.630Z,20064
2019-05-07T09:29:34.754Z,21536
2019-05-07T09:30:36.835Z,24800
2019-05-07T09:31:39.230Z,25696
2019-05-07T09:32:43.873Z,32064
2019-05-07T09:33:45.985Z,84448
2019-05-07T09:34:48.059Z,11760
2019-05-07T09:35:50.143Z,9748
2019-05-07T09:36:54.821Z,9144
2019-05-07T09:37:57.276Z,9244
2019-05-07T09:38:59.517Z,10176
2019-05-07T09:40:04.076Z,11708
2019-05-07T09:41:06.134Z,14116
2019-05-07T09:42:08.275Z,18044
2019-05-07T09:43:11.687Z,24960
2019-05-07T09:44:14.252Z,122240
2019-05-07T09:45:16.341Z,120416
2019-05-07T09:46:20.138Z,69248
2019-05-07T09:47:24.623Z,18688
2019-05-07T09:48:26.692Z,20672
2019-05-07T09:49:28.853Z,102816
2019-05-07T09:50:32.455Z,108960
2019-05-07T09:51:34.761Z,51008
2019-05-07T09:52:36.875Z,25024
2019-05-07T09:53:38.975Z,49984
2019-05-07T09:54:42.798Z,19168
2019-05-07T09:55:44.998Z,16888
2019-05-07T09:56:47.142Z,96864
2019-05-07T09:57:49.593Z,15980
2019-05-07T09:58:54.142Z,109696
2019-05-07T09:59:56.235Z,109024
2019-05-07T10:00:58.302Z,108448
2019-05-07T10:02:01.767Z,107168
2019-05-07T10:03:03.982Z,106048
2019-05-07T10:04:06.122Z,110368
2019-05-07T10:05:08.227Z,115040
2019-05-07T10:06:12.306Z,120192
2019-05-07T10:07:14.513Z,121184
2019-05-07T10:08:16.878Z,122688
2019-05-07T10:09:19.026Z,48128
2019-05-07T10:10:23.394Z,29760
2019-05-07T10:11:25.832Z,30208
2019-05-07T10:12:28.205Z,26368
2019-05-07T10:13:30.279Z,94848
2019-05-07T10:14:34.722Z,105152
2019-05-07T10:15:36.812Z,115104
2019-05-07T10:16:38.946Z,111808
2019-05-07T10:17:43.261Z,105920
2019-05-07T10:18:45.363Z,101664
2019-05-07T10:19:47.446Z,105664
2019-05-07T10:20:51.841Z,107808
2019-05-07T10:21:54.676Z,105632
2019-05-07T10:22:56.770Z,102400
2019-05-07T10:23:58.892Z,102016
2019-05-07T10:25:02.782Z,107648
2019-05-07T10:26:05.129Z,108416
2019-05-07T10:27:07.286Z,107616
2019-05-07T10:28:09.371Z,106752
2019-05-07T10:29:14.902Z,107232
2019-05-07T10:30:16.995Z,110496
2019-05-07T10:31:19.109Z,117184
2019-05-07T10:32:23.627Z,117216
2019-05-07T10:33:25.716Z,117504
2019-05-07T10:34:27.834Z,115360
2019-05-07T10:35:31.594Z,116544
2019-05-07T10:36:36.041Z,120768
2019-05-07T10:37:38.131Z,115584
2019-05-07T10:38:40.523Z,110976
2019-05-07T10:39:43.080Z,109504
2019-05-07T10:40:45.226Z,108480
2019-05-07T10:41:47.367Z,111424
2019-05-07T10:42:51.725Z,110944
2019-05-07T10:43:54.076Z,26336
2019-05-07T10:44:56.359Z,25216
2019-05-07T10:45:58.492Z,28128
2019-05-07T10:47:01.982Z,27392
2019-05-07T10:48:04.229Z,47968
2019-05-07T10:49:06.310Z,22304
2019-05-07T10:50:08.446Z,17824
2019-05-07T10:51:12.868Z,14736
2019-05-07T10:52:15.405Z,13100
2019-05-07T10:53:17.487Z,13632
2019-05-07T10:54:21.762Z,15064
2019-05-07T10:55:23.964Z,13324
2019-05-07T10:56:26.315Z,11424
2019-05-07T10:57:28.468Z,9876
2019-05-07T10:58:31.972Z,9088
2019-05-07T10:59:34.979Z,8884
2019-05-07T11:00:37.048Z,9364
2019-05-07T11:01:39.147Z,9952
2019-05-07T11:02:43.802Z,10620
2019-05-07T11:03:45.898Z,11844
2019-05-07T11:04:48.018Z,13744
2019-05-07T11:05:50.120Z,21792
2019-05-07T11:06:52.878Z,90496
2019-05-07T11:07:54.949Z,106464
2019-05-07T11:08:57.025Z,108064
2019-05-07T11:09:59.158Z,104896
2019-05-07T11:11:03.986Z,106656
2019-05-07T11:12:06.153Z,94976
2019-05-07T11:13:08.240Z,103872
2019-05-07T11:14:12.186Z,98752
2019-05-07T11:15:14.382Z,110496
2019-05-07T11:16:16.478Z,112832
2019-05-07T11:17:18.986Z,113504
2019-05-07T11:18:23.482Z,112416
2019-05-07T11:19:25.970Z,109312
2019-05-07T11:20:28.057Z,110752
2019-05-07T11:21:30.171Z,110208
2019-05-07T11:22:35.232Z,110336
2019-05-07T11:23:37.343Z,109536
2019-05-07T11:24:39.465Z,108832
2019-05-07T11:25:43.809Z,102720
2019-05-07T11:26:46.475Z,97216
2019-05-07T11:27:48.563Z,100224
2019-05-07T11:28:50.651Z,114688
2019-05-07T11:29:53.379Z,112832
2019-05-07T11:30:55.481Z,110112
2019-05-07T11:31:57.618Z,110048
2019-05-07T11:32:59.714Z,110176
2019-05-07T11:34:04.189Z,108800
2019-05-07T11:35:06.327Z,107776
2019-05-07T11:36:08.422Z,107040
2019-05-07T11:37:11.869Z,101472
2019-05-07T11:39:26.997Z,104128
2019-05-07T11:40:31.659Z,106752
2019-05-07T11:41:36.858Z,103008
2019-05-07T11:42:39.380Z,101120
2019-05-07T11:43:46.962Z,100992
2019-05-07T11:44:49.053Z,76928
2019-05-07T11:45:54.282Z,111264
2019-05-07T11:46:56.575Z,111136
2019-05-07T11:47:58.649Z,108992
2019-05-07T11:49:00.735Z,104832
2019-05-07T11:50:03.263Z,82720
2019-05-07T11:51:05.414Z,95520
2019-05-07T11:52:07.845Z,92288
2019-05-07T11:53:09.926Z,96384
2019-05-07T11:54:12.761Z,99872
2019-05-07T11:55:15.030Z,100544
2019-05-07T11:56:17.113Z,67808
2019-05-07T11:57:19.267Z,102592
2019-05-07T11:58:23.569Z,102624
2019-05-07T11:59:25.719Z,24288
2019-05-07T12:00:28.109Z,96928
2019-05-07T12:01:41.510Z,44320
2019-05-07T12:02:51.418Z,54528
2019-05-07T12:03:54.535Z,76864
2019-05-07T12:04:56.691Z,51008
2019-05-07T12:05:58.780Z,83744
2019-05-07T12:07:03.638Z,41376
2019-05-07T12:08:05.956Z,34656
2019-05-07T12:09:08.040Z,40480
2019-05-07T12:10:12.047Z,39424
2019-05-07T12:11:14.237Z,71392
2019-05-07T12:12:16.397Z,26016
2019-05-07T12:13:18.468Z,24384
2019-05-07T12:14:30.809Z,27456
2019-05-07T12:15:37.266Z,102880
2019-05-07T12:16:39.364Z,101952
2019-05-07T12:17:44.199Z,29504
2019-05-07T12:18:46.285Z,33568
2019-05-07T12:19:48.414Z,18848
2019-05-07T12:20:53.703Z,17880
2019-05-07T12:21:56.218Z,18304
2019-05-07T12:22:58.358Z,18496
2019-05-07T12:24:02.097Z,19776
2019-05-07T12:25:04.769Z,22976
2019-05-07T12:26:06.844Z,32928
2019-05-07T12:27:08.982Z,25568
2019-05-07T12:28:13.469Z,23808
2019-05-07T12:29:15.542Z,21984
2019-05-07T12:30:17.979Z,27264
2019-05-07T12:31:22.313Z,21248
2019-05-07T12:32:24.578Z,84544
2019-05-07T12:33:26.650Z,97792
2019-05-07T12:34:28.736Z,97824
2019-05-07T12:35:33.248Z,97856
2019-05-07T12:36:35.320Z,97792
2019-05-07T12:37:38.249Z,95712
2019-05-07T12:38:41.689Z,92960
2019-05-07T12:39:43.876Z,88992
2019-05-07T12:40:45.957Z,86656
2019-05-07T12:41:48.057Z,88512
2019-05-07T12:42:52.102Z,90720
2019-05-07T12:43:54.780Z,89280
2019-05-07T12:44:57.191Z,14644
2019-05-07T12:45:59.255Z,14764
2019-05-07T12:47:03.894Z,15436
2019-05-07T12:48:05.965Z,17624
2019-05-07T12:49:08.036Z,17768
2019-05-07T12:50:10.178Z,18976
2019-05-07T12:50:49.486Z,11436
2019-05-07T12:51:53.932Z,101792
2019-05-07T23:05:35.639Z,0
2019-05-07T23:06:38.502Z,0
2019-05-07T23:07:45.010Z,0
2019-05-07T23:08:47.479Z,0
2019-05-07T23:09:52.182Z,0
2019-05-07T23:10:54.491Z,0
2019-05-07T23:11:56.722Z,0
2019-05-07T23:12:58.888Z,0
2019-05-07T23:14:03.696Z,0
2019-05-07T23:15:06.126Z,0
2019-05-07T23:16:08.292Z,0
2019-05-07T23:17:12.575Z,0
2019-05-07T23:18:14.781Z,0
2019-05-07T23:19:17.033Z,0
2019-05-07T23:20:19.198Z,0
2019-05-07T23:21:25.672Z,0
2019-05-07T23:22:28.177Z,0
2019-05-07T23:23:32.031Z,0
2019-05-07T23:24:34.724Z,0
2019-05-07T23:25:36.876Z,0
2019-05-07T23:26:48.017Z,0
2019-05-07T23:27:55.621Z,0
2019-05-07T23:28:57.779Z,0
2019-05-07T23:30:02.308Z,0
2019-05-07T23:31:05.112Z,0
2019-05-07T23:32:07.358Z,0
2019-05-07T23:33:11.514Z,0
2019-05-07T23:34:14.263Z,0
2019-05-07T23:35:16.405Z,0
2019-05-07T23:36:18.575Z,0
2019-05-07T23:37:22.439Z,0
2019-05-07T23:38:24.727Z,0
2019-05-07T23:39:26.978Z,0
2019-05-07T23:40:29.129Z,0
2019-05-07T23:41:32.933Z,0
2019-05-07T23:42:35.205Z,0
2019-05-07T23:43:37.383Z,0
2019-05-07T23:44:41.429Z,0
2019-05-07T23:45:44.136Z,0
2019-05-07T23:46:46.397Z,0
2019-05-07T23:47:48.894Z,0
2019-05-07T23:48:53.324Z,0
2019-05-07T23:49:55.533Z,0
2019-05-07T23:50:57.704Z,0
2019-05-07T23:52:02.164Z,0
2019-05-07T23:53:04.551Z,0
2019-05-07T23:54:06.780Z,0
2019-05-07T23:55:08.925Z,0
2019-05-07T23:56:13.292Z,0
2019-05-07T23:57:15.616Z,0
2019-05-07T23:58:17.793Z,0
2019-05-07T23:59:22.129Z,0
